sensor_id;sensor_type;location;lat;lon;timestamp;P1;durP1;ratioP1;P2;durP2;ratioP2
27704;SDS011;15109;50.992;6.918;2022-10-19T00:01:40;11.80;;;2.58;;
27704;SDS011;15109;50.992;6.918;2022-10-19T00:05:02;5.15;;;2.70;;
27704;SDS011;15109;50.992;6.918;2022-10-19T00:08:23;5.13;;;2.50;;
27704;SDS011;15109;50.992;6.918;2022-10-19T00:11:45;4.45;;;2.38;;
27704;SDS011;15109;50.992;6.918;2022-10-19T00:15:07;4.70;;;2.38;;
27704;SDS011;15109;50.992;6.918;2022-10-19T00:18:28;6.60;;;2.60;;
27704;SDS011;15109;50.992;6.918;2022-10-19T00:21:49;5.55;;;2.00;;
27704;SDS011;15109;50.992;6.918;2022-10-19T00:25:11;5.13;;;2.58;;
27704;SDS011;15109;50.992;6.918;2022-10-19T00:28:32;3.25;;;2.13;;
27704;SDS011;15109;50.992;6.918;2022-10-19T00:31:53;4.72;;;2.20;;
27704;SDS011;15109;50.992;6.918;2022-10-19T00:35:14;5.18;;;2.55;;
27704;SDS011;15109;50.992;6.918;2022-10-19T00:38:35;5.95;;;2.90;;
27704;SDS011;15109;50.992;6.918;2022-10-19T00:41:56;3.83;;;2.03;;
27704;SDS011;15109;50.992;6.918;2022-10-19T00:45:17;5.90;;;1.95;;
27704;SDS011;15109;50.992;6.918;2022-10-19T00:48:38;4.63;;;2.13;;
27704;SDS011;15109;50.992;6.918;2022-10-19T00:52:03;3.67;;;1.95;;
27704;SDS011;15109;50.992;6.918;2022-10-19T00:55:27;5.95;;;2.10;;
27704;SDS011;15109;50.992;6.918;2022-10-19T00:58:48;4.22;;;1.90;;
27704;SDS011;15109;50.992;6.918;2022-10-19T01:02:10;2.47;;;1.38;;
27704;SDS011;15109;50.992;6.918;2022-10-19T01:05:32;4.38;;;2.10;;
27704;SDS011;15109;50.992;6.918;2022-10-19T01:08:54;3.72;;;2.13;;
27704;SDS011;15109;50.992;6.918;2022-10-19T01:45:18;4.95;;;2.28;;
27704;SDS011;15109;50.992;6.918;2022-10-19T01:48:48;3.25;;;1.98;;
27704;SDS011;15109;50.992;6.918;2022-10-19T01:52:14;3.47;;;1.88;;
27704;SDS011;15109;50.992;6.918;2022-10-19T01:55:39;9.43;;;1.88;;
27704;SDS011;15109;50.992;6.918;2022-10-19T01:59:03;4.13;;;2.22;;
27704;SDS011;15109;50.992;6.918;2022-10-19T02:02:27;5.28;;;1.95;;
27704;SDS011;15109;50.992;6.918;2022-10-19T02:05:49;7.82;;;1.55;;
27704;SDS011;15109;50.992;6.918;2022-10-19T02:09:12;4.40;;;2.05;;
27704;SDS011;15109;50.992;6.918;2022-10-19T02:12:37;3.30;;;1.70;;
27704;SDS011;15109;50.992;6.918;2022-10-19T02:16:00;6.55;;;2.20;;
27704;SDS011;15109;50.992;6.918;2022-10-19T02:19:28;6.57;;;2.33;;
27704;SDS011;15109;50.992;6.918;2022-10-19T02:22:49;5.13;;;1.85;;
27704;SDS011;15109;50.992;6.918;2022-10-19T02:26:10;3.22;;;1.67;;
27704;SDS011;15109;50.992;6.918;2022-10-19T02:29:32;2.53;;;1.42;;
27704;SDS011;15109;50.992;6.918;2022-10-19T02:32:54;3.30;;;1.35;;
27704;SDS011;15109;50.992;6.918;2022-10-19T02:36:15;5.38;;;1.70;;
27704;SDS011;15109;50.992;6.918;2022-10-19T02:39:37;3.33;;;1.77;;
27704;SDS011;15109;50.992;6.918;2022-10-19T02:43:00;3.20;;;1.80;;
27704;SDS011;15109;50.992;6.918;2022-10-19T02:46:39;3.23;;;1.60;;
27704;SDS011;15109;50.992;6.918;2022-10-19T02:50:04;2.97;;;1.50;;
27704;SDS011;15109;50.992;6.918;2022-10-19T02:53:27;2.20;;;1.48;;
27704;SDS011;15109;50.992;6.918;2022-10-19T02:56:48;6.85;;;1.83;;
27704;SDS011;15109;50.992;6.918;2022-10-19T03:00:09;3.40;;;1.40;;
27704;SDS011;15109;50.992;6.918;2022-10-19T03:03:31;3.58;;;1.73;;
27704;SDS011;15109;50.992;6.918;2022-10-19T03:06:52;2.90;;;1.52;;
27704;SDS011;15109;50.992;6.918;2022-10-19T03:10:13;2.65;;;1.58;;
27704;SDS011;15109;50.992;6.918;2022-10-19T03:13:34;2.47;;;1.52;;
27704;SDS011;15109;50.992;6.918;2022-10-19T03:16:55;2.88;;;1.73;;
27704;SDS011;15109;50.992;6.918;2022-10-19T03:20:16;3.47;;;1.85;;
27704;SDS011;15109;50.992;6.918;2022-10-19T03:23:37;3.28;;;1.67;;
27704;SDS011;15109;50.992;6.918;2022-10-19T03:26:59;8.38;;;1.77;;
27704;SDS011;15109;50.992;6.918;2022-10-19T03:30:21;4.03;;;1.80;;
27704;SDS011;15109;50.992;6.918;2022-10-19T03:33:44;3.22;;;1.58;;
27704;SDS011;15109;50.992;6.918;2022-10-19T03:37:05;3.25;;;1.83;;
27704;SDS011;15109;50.992;6.918;2022-10-19T03:40:28;11.90;;;1.85;;
27704;SDS011;15109;50.992;6.918;2022-10-19T03:43:49;3.10;;;1.52;;
27704;SDS011;15109;50.992;6.918;2022-10-19T03:47:10;5.07;;;1.42;;
27704;SDS011;15109;50.992;6.918;2022-10-19T03:50:31;3.38;;;1.38;;
27704;SDS011;15109;50.992;6.918;2022-10-19T03:54:00;3.72;;;1.83;;
27704;SDS011;15109;50.992;6.918;2022-10-19T03:57:23;4.20;;;1.92;;
27704;SDS011;15109;50.992;6.918;2022-10-19T04:00:44;3.17;;;1.75;;
27704;SDS011;15109;50.992;6.918;2022-10-19T04:04:06;5.95;;;1.80;;
27704;SDS011;15109;50.992;6.918;2022-10-19T04:07:30;2.25;;;1.27;;
27704;SDS011;15109;50.992;6.918;2022-10-19T04:10:51;2.55;;;1.58;;
27704;SDS011;15109;50.992;6.918;2022-10-19T04:14:13;2.25;;;1.40;;
27704;SDS011;15109;50.992;6.918;2022-10-19T04:17:34;2.30;;;1.42;;
27704;SDS011;15109;50.992;6.918;2022-10-19T04:21:00;1.75;;;1.17;;
27704;SDS011;15109;50.992;6.918;2022-10-19T04:24:24;3.25;;;1.70;;
27704;SDS011;15109;50.992;6.918;2022-10-19T04:27:45;1.70;;;1.13;;
27704;SDS011;15109;50.992;6.918;2022-10-19T04:31:06;1.95;;;1.30;;
27704;SDS011;15109;50.992;6.918;2022-10-19T04:34:27;4.25;;;2.25;;
27704;SDS011;15109;50.992;6.918;2022-10-19T04:37:48;5.32;;;2.33;;
27704;SDS011;15109;50.992;6.918;2022-10-19T04:41:10;3.33;;;1.40;;
27704;SDS011;15109;50.992;6.918;2022-10-19T04:44:33;10.80;;;1.95;;
27704;SDS011;15109;50.992;6.918;2022-10-19T04:47:54;4.00;;;1.92;;
27704;SDS011;15109;50.992;6.918;2022-10-19T04:51:18;4.95;;;1.40;;
27704;SDS011;15109;50.992;6.918;2022-10-19T04:54:40;7.95;;;2.08;;
27704;SDS011;15109;50.992;6.918;2022-10-19T04:58:01;3.08;;;1.48;;
27704;SDS011;15109;50.992;6.918;2022-10-19T05:01:24;2.03;;;1.30;;
27704;SDS011;15109;50.992;6.918;2022-10-19T05:04:46;4.40;;;1.60;;
27704;SDS011;15109;50.992;6.918;2022-10-19T05:08:08;3.85;;;2.13;;
27704;SDS011;15109;50.992;6.918;2022-10-19T05:11:30;2.85;;;1.40;;
27704;SDS011;15109;50.992;6.918;2022-10-19T05:14:51;1.48;;;1.13;;
27704;SDS011;15109;50.992;6.918;2022-10-19T05:18:12;3.22;;;1.70;;
27704;SDS011;15109;50.992;6.918;2022-10-19T05:21:33;3.40;;;1.85;;
27704;SDS011;15109;50.992;6.918;2022-10-19T05:24:54;4.68;;;2.13;;
27704;SDS011;15109;50.992;6.918;2022-10-19T05:28:15;5.70;;;2.42;;
27704;SDS011;15109;50.992;6.918;2022-10-19T05:31:36;5.60;;;2.28;;
27704;SDS011;15109;50.992;6.918;2022-10-19T05:34:57;7.60;;;1.98;;
27704;SDS011;15109;50.992;6.918;2022-10-19T05:38:19;2.83;;;1.60;;
27704;SDS011;15109;50.992;6.918;2022-10-19T05:41:41;7.15;;;2.17;;
27704;SDS011;15109;50.992;6.918;2022-10-19T05:45:04;3.58;;;2.05;;
27704;SDS011;15109;50.992;6.918;2022-10-19T05:48:25;4.53;;;2.20;;
27704;SDS011;15109;50.992;6.918;2022-10-19T05:51:48;4.80;;;1.92;;
27704;SDS011;15109;50.992;6.918;2022-10-19T05:55:09;2.92;;;1.45;;
27704;SDS011;15109;50.992;6.918;2022-10-19T05:58:30;2.35;;;1.17;;
27704;SDS011;15109;50.992;6.918;2022-10-19T06:01:52;2.97;;;1.23;;
27704;SDS011;15109;50.992;6.918;2022-10-19T06:05:13;1.45;;;1.17;;
27704;SDS011;15109;50.992;6.918;2022-10-19T06:08:34;2.25;;;1.35;;
27704;SDS011;15109;50.992;6.918;2022-10-19T06:11:56;4.70;;;1.55;;
27704;SDS011;15109;50.992;6.918;2022-10-19T06:15:17;6.22;;;2.00;;
27704;SDS011;15109;50.992;6.918;2022-10-19T06:18:38;1.85;;;1.20;;
27704;SDS011;15109;50.992;6.918;2022-10-19T06:21:59;2.92;;;1.33;;
27704;SDS011;15109;50.992;6.918;2022-10-19T06:25:20;3.13;;;1.50;;
27704;SDS011;15109;50.992;6.918;2022-10-19T06:28:42;3.08;;;1.77;;
27704;SDS011;15109;50.992;6.918;2022-10-19T06:32:03;6.43;;;1.73;;
27704;SDS011;15109;50.992;6.918;2022-10-19T06:35:24;2.35;;;1.30;;
27704;SDS011;15109;50.992;6.918;2022-10-19T06:38:46;2.85;;;1.38;;
27704;SDS011;15109;50.992;6.918;2022-10-19T06:42:07;3.00;;;1.48;;
27704;SDS011;15109;50.992;6.918;2022-10-19T06:45:29;10.70;;;1.58;;
27704;SDS011;15109;50.992;6.918;2022-10-19T06:48:51;6.25;;;1.27;;
27704;SDS011;15109;50.992;6.918;2022-10-19T06:52:16;3.30;;;1.38;;
27704;SDS011;15109;50.992;6.918;2022-10-19T06:55:37;3.00;;;1.42;;
27704;SDS011;15109;50.992;6.918;2022-10-19T06:58:58;4.60;;;1.75;;
27704;SDS011;15109;50.992;6.918;2022-10-19T07:02:19;2.78;;;1.33;;
27704;SDS011;15109;50.992;6.918;2022-10-19T07:05:41;5.28;;;2.25;;
27704;SDS011;15109;50.992;6.918;2022-10-19T07:09:02;3.47;;;1.92;;
27704;SDS011;15109;50.992;6.918;2022-10-19T07:12:23;4.35;;;2.20;;
27704;SDS011;15109;50.992;6.918;2022-10-19T07:15:44;3.85;;;2.20;;
27704;SDS011;15109;50.992;6.918;2022-10-19T07:19:06;4.70;;;2.25;;
27704;SDS011;15109;50.992;6.918;2022-10-19T07:22:27;4.78;;;2.53;;
27704;SDS011;15109;50.992;6.918;2022-10-19T07:25:48;9.68;;;3.08;;
27704;SDS011;15109;50.992;6.918;2022-10-19T07:29:09;5.38;;;2.50;;
27704;SDS011;15109;50.992;6.918;2022-10-19T07:32:30;4.10;;;2.25;;
27704;SDS011;15109;50.992;6.918;2022-10-19T07:35:57;7.45;;;2.42;;
27704;SDS011;15109;50.992;6.918;2022-10-19T07:39:19;5.07;;;3.03;;
27704;SDS011;15109;50.992;6.918;2022-10-19T07:42:41;4.55;;;2.03;;
27704;SDS011;15109;50.992;6.918;2022-10-19T07:46:03;5.35;;;2.63;;
27704;SDS011;15109;50.992;6.918;2022-10-19T07:49:25;4.28;;;2.15;;
27704;SDS011;15109;50.992;6.918;2022-10-19T07:52:46;5.15;;;2.92;;
27704;SDS011;15109;50.992;6.918;2022-10-19T07:56:15;5.82;;;2.63;;
27704;SDS011;15109;50.992;6.918;2022-10-19T07:59:41;10.32;;;3.08;;
27704;SDS011;15109;50.992;6.918;2022-10-19T08:03:02;8.07;;;2.70;;
27704;SDS011;15109;50.992;6.918;2022-10-19T08:06:23;14.38;;;2.83;;
27704;SDS011;15109;50.992;6.918;2022-10-19T08:09:45;5.38;;;2.95;;
27704;SDS011;15109;50.992;6.918;2022-10-19T08:13:06;3.95;;;2.22;;
27704;SDS011;15109;50.992;6.918;2022-10-19T08:16:31;5.68;;;3.08;;
27704;SDS011;15109;50.992;6.918;2022-10-19T08:19:54;5.93;;;2.67;;
27704;SDS011;15109;50.992;6.918;2022-10-19T08:23:15;3.80;;;2.15;;
27704;SDS011;15109;50.992;6.918;2022-10-19T08:26:36;4.65;;;2.55;;
27704;SDS011;15109;50.992;6.918;2022-10-19T08:29:58;6.30;;;2.13;;
27704;SDS011;15109;50.992;6.918;2022-10-19T08:33:19;4.18;;;2.05;;
27704;SDS011;15109;50.992;6.918;2022-10-19T08:36:40;4.18;;;2.40;;
27704;SDS011;15109;50.992;6.918;2022-10-19T08:40:02;10.23;;;2.13;;
27704;SDS011;15109;50.992;6.918;2022-10-19T08:43:28;4.68;;;2.33;;
27704;SDS011;15109;50.992;6.918;2022-10-19T08:50:43;12.25;;;2.35;;
27704;SDS011;15109;50.992;6.918;2022-10-19T08:54:07;2.92;;;1.55;;
27704;SDS011;15109;50.992;6.918;2022-10-19T09:04:49;3.65;;;1.90;;
27704;SDS011;15109;50.992;6.918;2022-10-19T09:08:19;3.42;;;1.73;;
27704;SDS011;15109;50.992;6.918;2022-10-19T09:11:41;3.67;;;1.75;;
27704;SDS011;15109;50.992;6.918;2022-10-19T09:15:09;3.38;;;1.70;;
27704;SDS011;15109;50.992;6.918;2022-10-19T09:18:33;6.47;;;2.53;;
27704;SDS011;15109;50.992;6.918;2022-10-19T09:25:18;2.92;;;1.45;;
27704;SDS011;15109;50.992;6.918;2022-10-19T09:28:48;5.22;;;1.80;;
27704;SDS011;15109;50.992;6.918;2022-10-19T09:35:35;3.30;;;1.60;;
27704;SDS011;15109;50.992;6.918;2022-10-19T09:39:03;10.13;;;2.08;;
27704;SDS011;15109;50.992;6.918;2022-10-19T09:42:25;2.17;;;1.20;;
27704;SDS011;15109;50.992;6.918;2022-10-19T09:46:12;2.65;;;1.45;;
27704;SDS011;15109;50.992;6.918;2022-10-19T09:49:41;3.35;;;1.55;;
27704;SDS011;15109;50.992;6.918;2022-10-19T09:53:10;3.55;;;1.83;;
27704;SDS011;15109;50.992;6.918;2022-10-19T09:56:37;2.72;;;1.35;;
27704;SDS011;15109;50.992;6.918;2022-10-19T10:00:00;2.08;;;1.33;;
27704;SDS011;15109;50.992;6.918;2022-10-19T10:03:32;3.17;;;1.83;;
27704;SDS011;15109;50.992;6.918;2022-10-19T10:06:55;1.60;;;1.08;;
27704;SDS011;15109;50.992;6.918;2022-10-19T10:10:22;2.92;;;1.52;;
27704;SDS011;15109;50.992;6.918;2022-10-19T10:13:48;3.13;;;1.60;;
27704;SDS011;15109;50.992;6.918;2022-10-19T10:17:13;2.38;;;1.50;;
27704;SDS011;15109;50.992;6.918;2022-10-19T10:20:41;3.38;;;1.38;;
27704;SDS011;15109;50.992;6.918;2022-10-19T10:24:35;3.45;;;1.92;;
27704;SDS011;15109;50.992;6.918;2022-10-19T10:28:16;1.85;;;0.82;;
27704;SDS011;15109;50.992;6.918;2022-10-19T10:31:38;3.40;;;1.38;;
27704;SDS011;15109;50.992;6.918;2022-10-19T10:35:03;3.63;;;1.63;;
27704;SDS011;15109;50.992;6.918;2022-10-19T10:38:29;7.72;;;1.60;;
27704;SDS011;15109;50.992;6.918;2022-10-19T10:41:54;2.25;;;1.17;;
27704;SDS011;15109;50.992;6.918;2022-10-19T10:45:23;1.60;;;1.20;;
27704;SDS011;15109;50.992;6.918;2022-10-19T10:48:54;3.20;;;1.65;;
27704;SDS011;15109;50.992;6.918;2022-10-19T10:52:18;9.40;;;1.77;;
27704;SDS011;15109;50.992;6.918;2022-10-19T10:55:39;1.27;;;0.82;;
27704;SDS011;15109;50.992;6.918;2022-10-19T10:59:16;2.58;;;1.05;;
27704;SDS011;15109;50.992;6.918;2022-10-19T11:06:21;5.32;;;1.73;;
27704;SDS011;15109;50.992;6.918;2022-10-19T11:09:56;2.67;;;1.25;;
27704;SDS011;15109;50.992;6.918;2022-10-19T11:13:24;4.20;;;1.70;;
27704;SDS011;15109;50.992;6.918;2022-10-19T11:16:46;4.35;;;1.77;;
27704;SDS011;15109;50.992;6.918;2022-10-19T11:20:13;4.90;;;0.98;;
27704;SDS011;15109;50.992;6.918;2022-10-19T11:27:24;1.85;;;1.05;;
27704;SDS011;15109;50.992;6.918;2022-10-19T11:31:12;2.38;;;1.27;;
27704;SDS011;15109;50.992;6.918;2022-10-19T11:38:30;2.05;;;0.85;;
27704;SDS011;15109;50.992;6.918;2022-10-19T11:45:27;1.30;;;0.52;;
27704;SDS011;15109;50.992;6.918;2022-10-19T11:56:43;1.67;;;0.73;;
27704;SDS011;15109;50.992;6.918;2022-10-19T12:00:08;2.83;;;1.23;;
27704;SDS011;15109;50.992;6.918;2022-10-19T12:11:18;0.70;;;0.57;;
27704;SDS011;15109;50.992;6.918;2022-10-19T12:14:43;3.83;;;1.10;;
27704;SDS011;15109;50.992;6.918;2022-10-19T12:21:48;2.25;;;0.80;;
27704;SDS011;15109;50.992;6.918;2022-10-19T12:25:13;2.42;;;1.25;;
27704;SDS011;15109;50.992;6.918;2022-10-19T12:28:37;1.38;;;0.65;;
27704;SDS011;15109;50.992;6.918;2022-10-19T12:32:03;1.57;;;0.83;;
27704;SDS011;15109;50.992;6.918;2022-10-19T12:52:55;1.90;;;0.60;;
27704;SDS011;15109;50.992;6.918;2022-10-19T12:56:23;3.83;;;1.42;;
27704;SDS011;15109;50.992;6.918;2022-10-19T12:59:45;3.50;;;1.33;;
27704;SDS011;15109;50.992;6.918;2022-10-19T13:03:20;2.55;;;1.17;;
27704;SDS011;15109;50.992;6.918;2022-10-19T13:06:46;1.98;;;1.13;;
27704;SDS011;15109;50.992;6.918;2022-10-19T13:10:12;4.40;;;1.35;;
27704;SDS011;15109;50.992;6.918;2022-10-19T13:13:57;4.47;;;1.40;;
27704;SDS011;15109;50.992;6.918;2022-10-19T13:20:54;3.45;;;1.55;;
27704;SDS011;15109;50.992;6.918;2022-10-19T13:24:19;2.95;;;0.95;;
27704;SDS011;15109;50.992;6.918;2022-10-19T13:27:43;1.67;;;0.80;;
27704;SDS011;15109;50.992;6.918;2022-10-19T13:31:21;2.33;;;1.17;;
27704;SDS011;15109;50.992;6.918;2022-10-19T13:34:44;4.68;;;1.98;;
27704;SDS011;15109;50.992;6.918;2022-10-19T13:38:10;4.75;;;1.30;;
27704;SDS011;15109;50.992;6.918;2022-10-19T13:44:58;5.32;;;1.92;;
27704;SDS011;15109;50.992;6.918;2022-10-19T13:49:03;2.80;;;1.27;;
27704;SDS011;15109;50.992;6.918;2022-10-19T13:52:30;8.48;;;1.40;;
27704;SDS011;15109;50.992;6.918;2022-10-19T14:00:17;1.35;;;0.88;;
27704;SDS011;15109;50.992;6.918;2022-10-19T14:07:14;1.02;;;0.70;;
27704;SDS011;15109;50.992;6.918;2022-10-19T14:10:50;1.42;;;0.88;;
27704;SDS011;15109;50.992;6.918;2022-10-19T14:14:20;6.72;;;1.08;;
27704;SDS011;15109;50.992;6.918;2022-10-19T14:17:43;1.70;;;1.05;;
27704;SDS011;15109;50.992;6.918;2022-10-19T14:21:05;2.35;;;1.25;;
27704;SDS011;15109;50.992;6.918;2022-10-19T14:28:01;1.58;;;0.73;;
27704;SDS011;15109;50.992;6.918;2022-10-19T14:31:33;1.83;;;1.08;;
27704;SDS011;15109;50.992;6.918;2022-10-19T14:34:58;2.25;;;1.02;;
27704;SDS011;15109;50.992;6.918;2022-10-19T14:38:34;0.57;;;0.50;;
27704;SDS011;15109;50.992;6.918;2022-10-19T14:42:04;2.78;;;1.33;;
27704;SDS011;15109;50.992;6.918;2022-10-19T14:45:30;2.80;;;1.17;;
27704;SDS011;15109;50.992;6.918;2022-10-19T14:48:52;1.92;;;0.80;;
27704;SDS011;15109;50.992;6.918;2022-10-19T14:52:34;3.35;;;1.02;;
27704;SDS011;15109;50.992;6.918;2022-10-19T14:56:01;4.20;;;1.58;;
27704;SDS011;15109;50.992;6.918;2022-10-19T15:02:57;1.50;;;0.82;;
27704;SDS011;15109;50.992;6.918;2022-10-19T15:06:22;1.73;;;0.85;;
27704;SDS011;15109;50.992;6.918;2022-10-19T15:09:57;2.08;;;0.88;;
27704;SDS011;15109;50.992;6.918;2022-10-19T15:13:25;3.85;;;1.00;;
27704;SDS011;15109;50.992;6.918;2022-10-19T15:24:06;1.20;;;0.70;;
27704;SDS011;15109;50.992;6.918;2022-10-19T15:27:42;1.88;;;0.93;;
27704;SDS011;15109;50.992;6.918;2022-10-19T15:31:14;2.70;;;1.23;;
27704;SDS011;15109;50.992;6.918;2022-10-19T15:34:37;1.20;;;0.77;;
27704;SDS011;15109;50.992;6.918;2022-10-19T15:38:07;1.17;;;0.80;;
27704;SDS011;15109;50.992;6.918;2022-10-19T15:41:34;1.83;;;0.80;;
27704;SDS011;15109;50.992;6.918;2022-10-19T15:44:59;1.30;;;0.75;;
27704;SDS011;15109;50.992;6.918;2022-10-19T15:52:13;0.55;;;0.45;;
27704;SDS011;15109;50.992;6.918;2022-10-19T15:55:35;0.75;;;0.45;;
27704;SDS011;15109;50.992;6.918;2022-10-19T15:58:59;1.58;;;0.55;;
27704;SDS011;15109;50.992;6.918;2022-10-19T16:02:21;1.67;;;0.73;;
27704;SDS011;15109;50.992;6.918;2022-10-19T16:05:44;1.73;;;0.80;;
27704;SDS011;15109;50.992;6.918;2022-10-19T16:09:07;2.10;;;0.98;;
27704;SDS011;15109;50.992;6.918;2022-10-19T16:12:35;5.65;;;1.15;;
27704;SDS011;15109;50.992;6.918;2022-10-19T16:16:04;1.17;;;0.63;;
27704;SDS011;15109;50.992;6.918;2022-10-19T16:19:26;2.20;;;0.90;;
27704;SDS011;15109;50.992;6.918;2022-10-19T16:22:47;1.02;;;0.68;;
27704;SDS011;15109;50.992;6.918;2022-10-19T16:26:10;0.98;;;0.50;;
27704;SDS011;15109;50.992;6.918;2022-10-19T16:29:33;1.67;;;0.80;;
27704;SDS011;15109;50.992;6.918;2022-10-19T16:32:54;4.38;;;1.35;;
27704;SDS011;15109;50.992;6.918;2022-10-19T16:36:15;3.38;;;1.08;;
27704;SDS011;15109;50.992;6.918;2022-10-19T16:39:39;1.98;;;0.82;;
27704;SDS011;15109;50.992;6.918;2022-10-19T16:43:00;3.67;;;0.98;;
27704;SDS011;15109;50.992;6.918;2022-10-19T16:46:22;2.17;;;0.98;;
27704;SDS011;15109;50.992;6.918;2022-10-19T16:49:44;2.05;;;1.05;;
27704;SDS011;15109;50.992;6.918;2022-10-19T16:53:07;4.75;;;1.35;;
27704;SDS011;15109;50.992;6.918;2022-10-19T16:56:30;3.30;;;1.42;;
27704;SDS011;15109;50.992;6.918;2022-10-19T16:59:52;2.60;;;1.00;;
27704;SDS011;15109;50.992;6.918;2022-10-19T17:03:13;4.22;;;1.05;;
27704;SDS011;15109;50.992;6.918;2022-10-19T17:06:37;2.38;;;1.27;;
27704;SDS011;15109;50.992;6.918;2022-10-19T17:09:58;2.85;;;1.30;;
27704;SDS011;15109;50.992;6.918;2022-10-19T17:13:19;1.30;;;0.77;;
27704;SDS011;15109;50.992;6.918;2022-10-19T17:16:40;1.23;;;0.73;;
27704;SDS011;15109;50.992;6.918;2022-10-19T17:20:01;3.50;;;1.58;;
27704;SDS011;15109;50.992;6.918;2022-10-19T17:23:22;2.60;;;1.30;;
27704;SDS011;15109;50.992;6.918;2022-10-19T17:26:43;4.18;;;1.65;;
27704;SDS011;15109;50.992;6.918;2022-10-19T17:30:05;6.50;;;1.77;;
27704;SDS011;15109;50.992;6.918;2022-10-19T17:33:27;3.08;;;1.70;;
27704;SDS011;15109;50.992;6.918;2022-10-19T17:36:48;3.25;;;1.20;;
27704;SDS011;15109;50.992;6.918;2022-10-19T17:40:09;2.90;;;1.63;;
27704;SDS011;15109;50.992;6.918;2022-10-19T17:43:30;7.30;;;1.40;;
27704;SDS011;15109;50.992;6.918;2022-10-19T17:46:51;2.47;;;1.55;;
27704;SDS011;15109;50.992;6.918;2022-10-19T17:50:12;4.88;;;1.65;;
27704;SDS011;15109;50.992;6.918;2022-10-19T17:53:34;7.07;;;2.35;;
27704;SDS011;15109;50.992;6.918;2022-10-19T17:56:55;1.75;;;1.02;;
27704;SDS011;15109;50.992;6.918;2022-10-19T18:00:16;2.13;;;1.10;;
27704;SDS011;15109;50.992;6.918;2022-10-19T18:03:37;6.97;;;1.83;;
27704;SDS011;15109;50.992;6.918;2022-10-19T18:06:59;3.30;;;1.35;;
27704;SDS011;15109;50.992;6.918;2022-10-19T18:10:20;1.88;;;1.13;;
27704;SDS011;15109;50.992;6.918;2022-10-19T18:13:42;1.77;;;1.13;;
27704;SDS011;15109;50.992;6.918;2022-10-19T18:17:06;0.95;;;0.85;;
27704;SDS011;15109;50.992;6.918;2022-10-19T18:20:27;1.25;;;0.73;;
27704;SDS011;15109;50.992;6.918;2022-10-19T18:23:48;3.65;;;1.58;;
27704;SDS011;15109;50.992;6.918;2022-10-19T18:27:10;1.65;;;0.98;;
27704;SDS011;15109;50.992;6.918;2022-10-19T18:30:35;0.70;;;0.57;;
27704;SDS011;15109;50.992;6.918;2022-10-19T18:33:58;1.17;;;0.70;;
27704;SDS011;15109;50.992;6.918;2022-10-19T18:37:21;9.30;;;1.60;;
27704;SDS011;15109;50.992;6.918;2022-10-19T18:40:42;4.03;;;1.02;;
27704;SDS011;15109;50.992;6.918;2022-10-19T18:44:03;1.90;;;1.05;;
27704;SDS011;15109;50.992;6.918;2022-10-19T18:47:25;1.27;;;0.65;;
27704;SDS011;15109;50.992;6.918;2022-10-19T18:50:46;1.63;;;1.10;;
27704;SDS011;15109;50.992;6.918;2022-10-19T18:54:07;1.58;;;0.98;;
27704;SDS011;15109;50.992;6.918;2022-10-19T18:57:28;3.00;;;1.38;;
27704;SDS011;15109;50.992;6.918;2022-10-19T19:00:49;2.05;;;1.15;;
27704;SDS011;15109;50.992;6.918;2022-10-19T19:04:10;2.88;;;1.10;;
27704;SDS011;15109;50.992;6.918;2022-10-19T19:07:32;5.05;;;1.38;;
27704;SDS011;15109;50.992;6.918;2022-10-19T19:10:53;1.05;;;0.80;;
27704;SDS011;15109;50.992;6.918;2022-10-19T19:14:15;2.03;;;0.80;;
27704;SDS011;15109;50.992;6.918;2022-10-19T19:17:43;2.05;;;1.02;;
27704;SDS011;15109;50.992;6.918;2022-10-19T19:24:38;2.63;;;1.23;;
27704;SDS011;15109;50.992;6.918;2022-10-19T19:28:01;1.13;;;0.80;;
27704;SDS011;15109;50.992;6.918;2022-10-19T19:31:22;0.85;;;0.60;;
27704;SDS011;15109;50.992;6.918;2022-10-19T19:34:43;2.33;;;1.02;;
27704;SDS011;15109;50.992;6.918;2022-10-19T19:38:05;1.13;;;0.70;;
27704;SDS011;15109;50.992;6.918;2022-10-19T19:41:26;3.10;;;1.27;;
27704;SDS011;15109;50.992;6.918;2022-10-19T19:44:48;1.45;;;0.93;;
27704;SDS011;15109;50.992;6.918;2022-10-19T19:48:09;4.88;;;1.52;;
27704;SDS011;15109;50.992;6.918;2022-10-19T19:51:30;0.55;;;0.55;;
27704;SDS011;15109;50.992;6.918;2022-10-19T19:54:52;3.13;;;0.70;;
27704;SDS011;15109;50.992;6.918;2022-10-19T19:58:14;0.80;;;0.65;;
27704;SDS011;15109;50.992;6.918;2022-10-19T20:01:36;0.45;;;0.35;;
27704;SDS011;15109;50.992;6.918;2022-10-19T20:04:57;5.57;;;1.83;;
27704;SDS011;15109;50.992;6.918;2022-10-19T20:08:18;7.97;;;1.23;;
27704;SDS011;15109;50.992;6.918;2022-10-19T20:11:39;3.42;;;1.08;;
27704;SDS011;15109;50.992;6.918;2022-10-19T20:15:00;1.35;;;0.73;;
27704;SDS011;15109;50.992;6.918;2022-10-19T20:18:21;2.45;;;1.00;;
27704;SDS011;15109;50.992;6.918;2022-10-19T20:21:43;2.85;;;1.35;;
27704;SDS011;15109;50.992;6.918;2022-10-19T20:25:04;5.22;;;1.73;;
27704;SDS011;15109;50.992;6.918;2022-10-19T20:28:26;7.97;;;1.38;;
27704;SDS011;15109;50.992;6.918;2022-10-19T20:31:47;1.33;;;0.75;;
27704;SDS011;15109;50.992;6.918;2022-10-19T20:35:08;2.55;;;0.85;;
27704;SDS011;15109;50.992;6.918;2022-10-19T20:38:29;7.43;;;1.00;;
27704;SDS011;15109;50.992;6.918;2022-10-19T20:41:51;5.00;;;1.05;;
27704;SDS011;15109;50.992;6.918;2022-10-19T20:45:12;3.10;;;1.13;;
27704;SDS011;15109;50.992;6.918;2022-10-19T20:48:33;3.83;;;1.25;;
27704;SDS011;15109;50.992;6.918;2022-10-19T20:51:54;2.28;;;1.15;;
27704;SDS011;15109;50.992;6.918;2022-10-19T20:55:15;1.73;;;0.85;;
27704;SDS011;15109;50.992;6.918;2022-10-19T20:58:37;6.55;;;1.60;;
27704;SDS011;15109;50.992;6.918;2022-10-19T21:02:03;4.78;;;1.23;;
27704;SDS011;15109;50.992;6.918;2022-10-19T21:05:24;2.72;;;1.25;;
27704;SDS011;15109;50.992;6.918;2022-10-19T21:08:45;5.03;;;0.98;;
27704;SDS011;15109;50.992;6.918;2022-10-19T21:12:08;6.32;;;1.48;;
27704;SDS011;15109;50.992;6.918;2022-10-19T21:15:29;1.40;;;0.95;;
27704;SDS011;15109;50.992;6.918;2022-10-19T21:18:51;2.78;;;1.00;;
27704;SDS011;15109;50.992;6.918;2022-10-19T21:22:12;2.97;;;1.33;;
27704;SDS011;15109;50.992;6.918;2022-10-19T21:25:33;3.63;;;1.58;;
27704;SDS011;15109;50.992;6.918;2022-10-19T21:28:54;1.27;;;0.88;;
27704;SDS011;15109;50.992;6.918;2022-10-19T21:32:16;2.83;;;1.40;;
27704;SDS011;15109;50.992;6.918;2022-10-19T21:35:38;1.88;;;1.02;;
27704;SDS011;15109;50.992;6.918;2022-10-19T21:38:59;2.80;;;1.35;;
27704;SDS011;15109;50.992;6.918;2022-10-19T21:42:21;2.50;;;1.15;;
27704;SDS011;15109;50.992;6.918;2022-10-19T21:45:42;4.32;;;0.90;;
27704;SDS011;15109;50.992;6.918;2022-10-19T21:49:03;3.05;;;1.27;;
27704;SDS011;15109;50.992;6.918;2022-10-19T21:52:24;1.67;;;0.98;;
27704;SDS011;15109;50.992;6.918;2022-10-19T21:55:45;1.48;;;0.93;;
27704;SDS011;15109;50.992;6.918;2022-10-19T21:59:06;2.88;;;1.30;;
27704;SDS011;15109;50.992;6.918;2022-10-19T22:02:27;2.70;;;1.30;;
27704;SDS011;15109;50.992;6.918;2022-10-19T22:05:51;2.67;;;1.38;;
27704;SDS011;15109;50.992;6.918;2022-10-19T22:09:13;1.92;;;1.00;;
27704;SDS011;15109;50.992;6.918;2022-10-19T22:12:38;3.72;;;1.17;;
27704;SDS011;15109;50.992;6.918;2022-10-19T22:16:03;1.90;;;1.30;;
27704;SDS011;15109;50.992;6.918;2022-10-19T22:19:28;1.48;;;1.17;;
27704;SDS011;15109;50.992;6.918;2022-10-19T22:22:49;1.45;;;1.15;;
27704;SDS011;15109;50.992;6.918;2022-10-19T22:26:11;2.55;;;1.38;;
27704;SDS011;15109;50.992;6.918;2022-10-19T22:29:37;3.45;;;1.17;;
27704;SDS011;15109;50.992;6.918;2022-10-19T22:32:58;1.65;;;1.05;;
27704;SDS011;15109;50.992;6.918;2022-10-19T22:36:19;2.25;;;1.25;;
27704;SDS011;15109;50.992;6.918;2022-10-19T22:39:40;5.93;;;1.42;;
27704;SDS011;15109;50.992;6.918;2022-10-19T22:43:01;3.40;;;1.48;;
27704;SDS011;15109;50.992;6.918;2022-10-19T22:46:22;1.80;;;1.10;;